createdAt,value
2018-02-16T14:20:38.118Z,15.30
2018-02-16T14:23:07.055Z,14.97
2018-02-16T14:25:35.884Z,19.63
2018-02-16T14:28:09.721Z,18.17
2018-02-16T14:30:38.551Z,13.13
2018-02-16T14:33:07.534Z,23.47
2018-02-16T14:35:41.409Z,17.70
2018-02-16T14:38:15.152Z,16.10
2018-02-16T14:40:44.122Z,14.80
2018-02-16T14:43:13.170Z,18.50
2018-02-16T14:45:42.807Z,16.03
2018-02-16T14:48:16.624Z,17.47
2018-02-16T14:50:45.573Z,12.57
2018-02-16T14:53:14.489Z,15.52
2018-02-16T14:55:49.586Z,14.07
2018-02-16T14:58:18.443Z,18.03
2018-02-16T15:00:47.395Z,13.97
2018-02-16T15:03:21.155Z,18.10
2018-02-16T15:05:50.259Z,15.13
2018-02-16T15:08:19.079Z,18.10
2018-02-16T15:10:47.918Z,14.03
2018-02-16T15:13:16.730Z,17.00
2018-02-16T15:15:45.630Z,12.63
2018-02-16T15:18:20.026Z,14.70
2018-02-16T15:20:48.909Z,13.50
2018-02-16T15:23:17.774Z,15.77
2018-02-16T15:25:47.099Z,14.93
2018-02-16T15:28:15.907Z,14.77
2018-02-16T15:30:45.877Z,14.83
2018-02-16T15:33:14.986Z,15.30
2018-02-16T15:35:44.563Z,15.57
2018-02-16T15:38:18.577Z,17.53
2018-02-16T15:40:47.439Z,17.60
2018-02-16T15:43:16.381Z,16.10
2018-02-16T15:45:50.228Z,12.93
2018-02-16T15:48:19.173Z,17.40
2018-02-16T15:50:47.940Z,14.80
2018-02-16T15:53:16.746Z,17.80
2018-02-16T15:55:46.339Z,17.03
2018-02-16T15:58:20.113Z,26.67
2018-02-16T16:00:54.774Z,16.60
2018-02-16T16:03:28.614Z,15.80
2018-02-16T16:05:57.418Z,16.20
2018-02-16T16:08:26.218Z,12.50
2018-02-16T16:10:55.047Z,14.98
2018-02-16T16:13:23.854Z,12.73
2018-02-16T16:15:53.427Z,14.20
2018-02-16T16:18:22.292Z,17.33
2018-02-16T16:20:51.199Z,13.38
2018-02-16T16:23:20.016Z,15.13
2018-02-16T16:25:54.542Z,16.00
2018-02-16T16:28:23.358Z,11.80
2018-02-16T16:30:52.195Z,16.20
2018-02-16T16:34:29.916Z,13.67
2018-02-16T16:36:58.814Z,15.35
2018-02-16T16:39:33.538Z,17.02
2018-02-16T16:42:02.456Z,15.30
2018-02-16T16:44:31.250Z,16.07
2018-02-16T16:47:01.233Z,13.52
2018-02-16T16:49:30.023Z,16.33
2018-02-16T16:53:37.996Z,26.50
2018-02-16T16:56:12.176Z,46.97
2018-02-16T16:58:45.891Z,19.67
2018-02-16T17:01:14.686Z,18.23
2018-02-16T17:03:43.484Z,13.10
2018-02-16T17:06:12.370Z,12.47
2018-02-16T17:08:41.196Z,17.57
2018-02-16T17:11:14.975Z,9.90
2018-02-16T17:13:43.778Z,16.53
2018-02-16T17:16:12.642Z,17.23
2018-02-16T17:18:41.437Z,15.43
2018-02-16T17:21:10.299Z,13.33
2018-02-16T17:23:44.011Z,15.63
2018-02-16T17:26:13.576Z,17.47
2018-02-16T17:28:42.381Z,16.50
2018-02-16T17:31:16.599Z,14.63
2018-02-16T17:33:45.403Z,12.87
2018-02-16T17:36:14.203Z,13.30
2018-02-16T17:38:47.958Z,11.23
2018-02-16T17:41:16.757Z,10.30
2018-02-16T17:43:50.690Z,12.70
2018-02-16T17:46:20.170Z,10.17
2018-02-16T17:48:48.963Z,13.97
2018-02-16T17:51:22.711Z,16.20
2018-02-16T17:53:56.903Z,12.10
2018-02-16T17:56:26.047Z,10.23
2018-02-16T17:58:59.786Z,11.67
2018-02-16T18:01:28.606Z,12.87
2018-02-16T18:03:57.403Z,10.90
2018-02-16T18:06:27.118Z,12.17
2018-02-16T18:08:56.393Z,11.50
2018-02-16T18:11:25.217Z,11.40
2018-02-16T18:13:53.974Z,16.10
2018-02-16T18:16:27.987Z,13.53
2018-02-16T18:18:56.818Z,13.87
2018-02-16T18:21:25.627Z,15.43
2018-02-16T18:23:54.483Z,11.30
2018-02-16T18:26:28.218Z,14.70
2018-02-16T18:28:57.284Z,11.53
2018-02-16T18:31:31.547Z,10.23
2018-02-16T18:34:01.143Z,10.37
2018-02-16T18:36:29.910Z,12.23
2018-02-16T18:38:58.714Z,11.53
2018-02-16T18:41:27.518Z,11.13
2018-02-16T18:44:01.270Z,11.00
2018-02-16T18:46:30.055Z,6.80
2018-02-16T18:48:59.063Z,16.37
2018-02-16T18:51:27.899Z,10.17
2018-02-16T18:53:57.062Z,8.60
2018-02-16T18:56:25.982Z,11.03
2018-02-16T18:58:54.787Z,9.33
2018-02-16T19:01:23.575Z,12.30
2018-02-16T19:03:52.379Z,10.97
2018-02-16T19:06:21.172Z,15.27
2018-02-16T19:08:50.779Z,10.97
2018-02-16T19:11:19.584Z,10.67
2018-02-16T19:13:48.370Z,13.27
2018-02-16T19:16:17.173Z,19.43
2018-02-16T19:18:46.508Z,10.70
2018-02-16T19:21:15.310Z,14.33
2018-02-16T19:23:49.834Z,17.33
2018-02-16T19:26:23.697Z,15.90
2018-02-16T19:28:57.495Z,19.50
2018-02-16T19:31:26.242Z,22.10
2018-02-16T19:33:55.043Z,23.97
2018-02-16T19:36:28.796Z,20.17
2018-02-16T19:38:57.570Z,18.47
2018-02-16T19:41:31.318Z,24.70
2018-02-16T19:44:05.046Z,21.47
2018-02-16T19:46:34.956Z,21.50
2018-02-16T19:49:09.451Z,16.87
2018-02-16T19:51:38.267Z,19.40
2018-02-16T19:54:12.002Z,20.53
2018-02-16T19:56:40.841Z,25.07
2018-02-16T19:59:09.791Z,29.60
2018-02-16T20:01:43.531Z,32.97
2018-02-16T20:04:12.343Z,26.50
2018-02-16T20:06:46.555Z,29.93
2018-02-16T20:09:21.799Z,30.40
2018-02-16T20:11:50.623Z,37.30
2018-02-16T20:14:19.426Z,31.83
2018-02-16T20:16:48.670Z,25.27
2018-02-16T20:19:23.171Z,38.07
2018-02-16T20:21:56.918Z,45.60
2018-02-16T20:24:30.787Z,41.73
2018-02-16T20:27:05.374Z,34.57
2018-02-16T20:29:39.116Z,32.10
2018-02-16T20:32:13.641Z,35.00
2018-02-16T20:34:42.434Z,33.23
2018-02-16T20:37:16.663Z,37.00
2018-02-16T20:39:45.462Z,37.80
2018-02-16T20:42:19.210Z,32.00
2018-02-16T20:44:48.019Z,33.53
2018-02-16T20:47:22.062Z,37.60
2018-02-16T20:49:56.563Z,37.90
2018-02-16T20:52:25.574Z,37.77
2018-02-16T20:54:54.370Z,37.07
2018-02-16T20:57:23.195Z,32.87
2018-02-16T20:59:56.938Z,29.73
2018-02-16T21:02:25.757Z,43.73
2018-02-16T21:04:59.615Z,32.03
2018-02-16T21:07:28.422Z,32.73
2018-02-16T21:09:57.466Z,33.40
2018-02-16T21:12:26.258Z,32.60
2018-02-16T21:15:00.014Z,32.10
2018-02-16T21:17:28.801Z,28.13
2018-02-16T21:19:57.641Z,38.87
2018-02-16T21:22:26.450Z,34.80
2018-02-16T21:24:55.247Z,39.43
2018-02-16T21:27:24.049Z,40.67
2018-02-16T21:29:52.890Z,35.93
2018-02-16T21:32:21.690Z,34.63
2018-02-16T21:34:55.439Z,32.90
